Time;durP1;ratioP1;P1;durP2;ratioP2;P2;SDS_P1;SDS_P2;PMS_P1;PMS_P2;Temp;Humidity;BMP_temperature;BMP_pressure;BME280_temperature;BME280_humidity;BME280_pressure;Samples;Min_cycle;Max_cycle;Signal;HPM_P1;HPM_P2
2022/10/05 00:01:33;;;;;;;10.20;6.93;;;13.90;81.30;;;;;;5013920;28;20184;-89
2022/10/05 00:04:21;;;;;;;13.97;7.57;;;14.00;81.40;;;;;;5014185;28;20161;-90
2022/10/05 00:06:55;;;;;;;16.70;7.43;;;14.00;81.20;;;;;;5017326;28;20169;-90
2022/10/05 00:09:21;;;;;;;10.93;6.73;;;14.00;81.20;;;;;;5018680;28;20193;-89
2022/10/05 00:11:48;;;;;;;10.40;6.77;;;14.10;81.20;;;;;;5016891;28;20216;-90
2022/10/05 00:14:20;;;;;;;10.57;7.57;;;14.10;81.10;;;;;;5018419;28;20663;-89
2022/10/05 00:16:46;;;;;;;18.37;7.60;;;14.10;81.40;;;;;;5017182;28;20184;-90
2022/10/05 00:19:36;;;;;;;13.33;7.33;;;14.00;81.60;;;;;;5017242;28;20675;-90
2022/10/05 00:22:32;;;;;;;10.50;6.90;;;14.10;81.40;;;;;;5018646;28;20647;-90
2022/10/05 00:25:00;;;;;;;16.70;7.50;;;14.20;81.30;;;;;;5010851;28;20200;-90
2022/10/05 00:27:32;;;;;;;12.23;7.17;;;14.10;81.30;;;;;;5017854;28;20281;-90
2022/10/05 00:30:01;;;;;;;11.33;6.60;;;14.10;81.60;;;;;;5016876;28;20209;-90
2022/10/05 00:32:27;;;;;;;18.30;7.70;;;14.00;81.80;;;;;;5016468;28;20272;-90
2022/10/05 00:34:52;;;;;;;12.93;8.40;;;14.00;81.80;;;;;;5016759;28;20205;-90
2022/10/05 00:37:18;;;;;;;13.77;6.73;;;14.10;81.60;;;;;;5016946;28;20276;-90
2022/10/05 00:39:44;;;;;;;12.03;7.30;;;14.10;81.80;;;;;;5015634;28;20240;-90
2022/10/05 00:42:17;;;;;;;13.67;7.33;;;14.00;82.10;;;;;;5016684;28;20251;-90
2022/10/05 00:45:00;;;;;;;11.53;7.27;;;13.90;82.70;;;;;;5015612;28;20610;-90
2022/10/05 00:47:35;;;;;;;12.57;7.00;;;13.80;82.90;;;;;;5015129;28;20239;-90
2022/10/05 00:50:32;;;;;;;12.07;6.47;;;13.80;82.90;;;;;;5015725;28;20247;-90
2022/10/05 00:52:57;;;;;;;9.97;6.77;;;13.80;83.10;;;;;;5015638;28;20211;-90
2022/10/05 00:55:48;;;;;;;14.07;7.10;;;13.80;83.20;;;;;;5015624;28;20624;-89
2022/10/05 00:58:34;;;;;;;16.50;7.33;;;13.80;83.30;;;;;;5015693;28;20284;-90
2022/10/05 01:01:16;;;;;;;13.07;8.07;;;13.80;83.40;;;;;;5016003;28;20237;-89
2022/10/05 01:04:07;;;;;;;11.47;7.83;;;13.80;83.60;;;;;;5016145;28;20173;-90
2022/10/05 01:06:53;;;;;;;13.50;7.83;;;13.80;83.70;;;;;;5016129;28;20620;-90
2022/10/05 01:09:28;;;;;;;11.23;7.67;;;13.80;83.50;;;;;;5015721;28;20209;-89
2022/10/05 01:12:18;;;;;;;14.87;8.00;;;13.80;83.60;;;;;;5016167;28;20161;-90
2022/10/05 01:15:07;;;;;;;16.83;7.63;;;13.80;83.80;;;;;;5016488;28;20173;-89
2022/10/05 01:17:48;;;;;;;13.20;8.27;;;13.70;84.00;;;;;;5015554;28;20166;-90
2022/10/05 01:20:26;;;;;;;12.30;7.47;;;13.70;84.00;;;;;;5018145;28;20306;-89
2022/10/05 01:22:59;;;;;;;12.23;8.07;;;13.70;83.80;;;;;;5022127;28;20643;-90
2022/10/05 01:26:13;;;;;;;15.17;8.27;;;13.70;84.00;;;;;;5022659;28;20165;-90
2022/10/05 01:28:52;;;;;;;12.17;7.13;;;13.70;84.10;;;;;;4924323;29;20319;-90
2022/10/05 01:31:41;;;;;;;15.20;8.17;;;13.60;84.40;;;;;;4939917;29;20203;-90
2022/10/05 01:34:28;;;;;;;13.80;7.90;;;13.60;84.50;;;;;;4991140;28;20193;-91
2022/10/05 01:36:56;;;;;;;11.70;8.30;;;13.50;84.60;;;;;;5019382;28;20170;-90
2022/10/05 01:39:31;;;;;;;14.40;8.03;;;13.60;84.30;;;;;;5019686;28;20194;-90
2022/10/05 01:42:20;;;;;;;13.83;7.97;;;13.60;83.90;;;;;;5019776;28;20620;-90
2022/10/05 01:44:51;;;;;;;15.33;8.60;;;13.60;83.60;;;;;;5019032;28;20200;-90
2022/10/05 01:47:39;;;;;;;14.73;7.93;;;13.60;83.70;;;;;;5020375;28;20246;-89
2022/10/05 01:50:25;;;;;;;12.40;7.93;;;13.60;83.40;;;;;;5019696;28;20212;-90
2022/10/05 01:53:02;;;;;;;13.43;7.80;;;13.60;83.40;;;;;;5019416;28;20315;-90
2022/10/05 01:55:47;;;;;;;11.30;7.90;;;13.60;83.20;;;;;;5018123;28;20165;-90
2022/10/05 01:58:29;;;;;;;12.70;7.30;;;13.60;83.20;;;;;;5018452;28;20229;-89
2022/10/05 02:01:11;;;;;;;11.97;7.80;;;13.60;83.00;;;;;;5018917;28;20747;-89
2022/10/05 02:03:43;;;;;;;10.80;7.17;;;13.60;83.00;;;;;;5019716;28;20169;-90
2022/10/05 02:06:15;;;;;;;10.07;7.67;;;13.60;83.30;;;;;;5018091;28;20193;-89
2022/10/05 02:08:56;;;;;;;15.57;7.97;;;13.50;83.20;;;;;;5018263;28;20590;-90
2022/10/05 02:11:22;;;;;;;14.40;7.70;;;13.40;83.70;;;;;;5016636;28;20295;-89
2022/10/05 02:14:10;;;;;;;15.90;8.07;;;13.40;83.80;;;;;;5017540;28;20212;-90
2022/10/05 02:16:39;;;;;;;12.87;8.53;;;13.40;83.90;;;;;;5018433;28;20177;-90
2022/10/05 02:19:28;;;;;;;16.57;9.30;;;13.40;83.90;;;;;;5016625;28;20220;-90
2022/10/05 02:22:02;;;;;;;15.77;8.80;;;13.30;84.00;;;;;;5018788;28;20219;-89
2022/10/05 02:24:50;;;;;;;13.07;8.10;;;13.30;84.00;;;;;;5018496;28;20205;-90
2022/10/05 02:27:23;;;;;;;16.00;9.00;;;13.30;84.30;;;;;;5017459;28;20198;-90
2022/10/05 02:29:50;;;;;;;16.27;8.10;;;13.30;84.20;;;;;;5017491;28;20582;-90
2022/10/05 02:32:22;;;;;;;14.03;7.97;;;13.30;84.20;;;;;;5018610;28;20173;-90
2022/10/05 02:34:48;;;;;;;15.57;8.73;;;13.30;84.10;;;;;;5017937;28;20223;-90
2022/10/05 02:37:29;;;;;;;15.17;8.30;;;13.30;84.30;;;;;;5018600;28;20213;-89
2022/10/05 02:40:18;;;;;;;16.13;8.47;;;13.30;84.50;;;;;;5016869;28;20200;-90
2022/10/05 02:42:55;;;;;;;15.87;9.63;;;13.20;84.50;;;;;;5016723;28;20602;-89
2022/10/05 02:45:58;;;;;;;12.23;8.53;;;13.20;84.60;;;;;;5017290;28;20181;-89
2022/10/05 02:48:38;;;;;;;16.60;9.17;;;13.20;84.50;;;;;;5001832;28;20192;-90
2022/10/05 02:51:11;;;;;;;14.40;8.50;;;13.20;84.50;;;;;;5017542;28;20197;-90
2022/10/05 02:53:58;;;;;;;16.63;8.17;;;13.20;84.70;;;;;;5018098;28;20173;-90
2022/10/05 02:56:49;;;;;;;14.80;8.90;;;13.20;84.60;;;;;;5018878;28;20209;-90
2022/10/05 02:59:38;;;;;;;13.57;8.87;;;13.20;84.60;;;;;;5017802;28;20638;-89
2022/10/05 03:02:21;;;;;;;14.10;9.43;;;13.20;84.60;;;;;;5017474;28;20170;-89
2022/10/05 03:05:06;;;;;;;10.20;8.33;;;13.30;84.40;;;;;;5017467;28;20237;-90
2022/10/05 03:07:49;;;;;;;14.40;9.07;;;13.30;84.40;;;;;;5018546;28;20212;-90
2022/10/05 03:10:27;;;;;;;15.50;8.60;;;13.30;84.50;;;;;;5016856;28;20267;-89
2022/10/05 03:12:59;;;;;;;15.10;8.87;;;13.30;84.60;;;;;;5018871;28;20162;-90
2022/10/05 03:15:43;;;;;;;14.87;9.30;;;13.20;84.70;;;;;;5017602;28;20176;-90
2022/10/05 03:18:30;;;;;;;12.67;8.83;;;13.20;84.70;;;;;;5018658;28;20164;-90
2022/10/05 03:21:24;;;;;;;13.60;8.87;;;13.30;84.50;;;;;;5016401;28;20182;-89
2022/10/05 03:24:27;;;;;;;21.13;9.77;;;13.30;84.90;;;;;;5016214;28;20180;-89
2022/10/05 03:26:59;;;;;;;12.57;9.70;;;13.30;84.70;;;;;;5016507;28;20181;-89
2022/10/05 03:29:50;;;;;;;13.63;9.20;;;13.20;85.20;;;;;;5017058;28;20200;-90
2022/10/05 03:32:29;;;;;;;13.87;8.60;;;13.20;85.10;;;;;;5015430;28;20179;-89
2022/10/05 03:35:29;;;;;;;15.50;9.63;;;13.20;84.80;;;;;;5015980;28;20206;-89
2022/10/05 03:38:09;;;;;;;16.23;9.67;;;13.20;84.90;;;;;;5018086;28;20216;-89
2022/10/05 03:40:40;;;;;;;14.13;10.20;;;13.20;85.00;;;;;;5017114;28;20548;-90
2022/10/05 03:43:15;;;;;;;18.57;10.13;;;13.20;85.10;;;;;;5015956;28;20239;-89
2022/10/05 03:45:52;;;;;;;13.87;9.20;;;13.20;85.00;;;;;;5016512;28;20181;-89
2022/10/05 03:48:35;;;;;;;16.30;10.00;;;13.20;85.10;;;;;;5028520;28;20510;-89
2022/10/05 03:51:26;;;;;;;16.17;9.30;;;13.20;85.20;;;;;;5017329;28;20296;-89
2022/10/05 03:54:09;;;;;;;19.33;9.53;;;13.20;85.30;;;;;;5018586;28;20200;-89
2022/10/05 03:56:40;;;;;;;18.40;9.63;;;13.20;85.30;;;;;;5019957;28;20157;-90
2022/10/05 03:59:39;;;;;;;16.87;10.13;;;13.20;85.20;;;;;;5017974;28;20193;-89
2022/10/05 04:02:11;;;;;;;15.17;10.60;;;13.20;85.10;;;;;;5007372;28;20186;-89
2022/10/05 04:04:54;;;;;;;12.13;9.33;;;13.30;85.00;;;;;;5018003;28;20587;-89
2022/10/05 04:07:46;;;;;;;12.07;9.40;;;13.30;85.10;;;;;;5019688;28;20165;-89
2022/10/05 04:10:22;;;;;;;13.87;9.50;;;13.30;85.00;;;;;;5017699;28;20209;-89
2022/10/05 04:12:57;;;;;;;13.00;9.20;;;13.30;85.00;;;;;;5018879;28;20161;-90
2022/10/05 04:15:35;;;;;;;10.93;8.83;;;13.30;85.00;;;;;;5018090;28;20168;-89
2022/10/05 04:18:04;;;;;;;12.70;8.47;;;13.30;84.80;;;;;;5016523;28;20173;-89
2022/10/05 04:20:39;;;;;;;11.93;8.83;;;13.30;84.80;;;;;;5017201;28;20292;-89
2022/10/05 04:23:23;;;;;;;16.30;9.03;;;13.30;84.90;;;;;;5018452;28;20231;-89
2022/10/05 04:26:01;;;;;;;12.80;9.63;;;13.30;84.70;;;;;;5017530;28;20184;-89
2022/10/05 04:28:57;;;;;;;13.10;8.80;;;13.30;84.90;;;;;;5018388;28;20173;-89
2022/10/05 04:31:47;;;;;;;14.77;9.83;;;13.30;84.80;;;;;;5016804;28;20267;-89
2022/10/05 04:34:35;;;;;;;14.70;9.00;;;13.30;85.00;;;;;;5016490;28;20184;-89
2022/10/05 04:37:07;;;;;;;12.80;9.77;;;13.20;85.30;;;;;;5017077;28;20228;-90
2022/10/05 04:39:50;;;;;;;16.30;9.20;;;13.20;85.10;;;;;;5015406;28;20220;-89
2022/10/05 04:42:29;;;;;;;13.80;9.00;;;13.20;85.20;;;;;;5017614;28;20189;-89
2022/10/05 04:45:08;;;;;;;17.00;9.73;;;13.30;85.00;;;;;;5017694;28;20172;-89
2022/10/05 04:47:49;;;;;;;15.30;8.90;;;13.30;85.10;;;;;;5016840;28;20196;-89
2022/10/05 04:50:20;;;;;;;12.83;8.93;;;13.30;85.20;;;;;;5016442;28;20216;-89
2022/10/05 04:53:16;;;;;;;13.77;9.10;;;13.30;85.20;;;;;;5016329;28;20268;-89
2022/10/05 04:55:52;;;;;;;12.23;8.90;;;13.20;85.10;;;;;;5017050;28;20165;-89
2022/10/05 04:58:41;;;;;;;16.87;9.47;;;13.20;85.20;;;;;;5015655;28;20173;-89
2022/10/05 05:01:47;;;;;;;11.10;8.33;;;13.20;85.50;;;;;;5015838;28;20184;-89
2022/10/05 05:04:42;;;;;;;12.20;8.80;;;13.20;85.60;;;;;;5016618;28;20215;-90
2022/10/05 05:07:26;;;;;;;18.87;9.13;;;13.20;85.70;;;;;;5016557;28;20271;-89
2022/10/05 05:10:18;;;;;;;21.03;9.97;;;13.20;85.70;;;;;;5016924;28;20208;-89
2022/10/05 05:12:55;;;;;;;18.90;9.87;;;13.20;85.80;;;;;;5010588;28;20181;-89
2022/10/05 05:15:39;;;;;;;18.30;9.97;;;13.20;86.00;;;;;;5015204;28;20251;-89
2022/10/05 05:18:41;;;;;;;16.33;9.57;;;13.20;86.00;;;;;;5015426;28;20244;-89
2022/10/05 05:21:28;;;;;;;13.07;9.03;;;13.20;86.10;;;;;;4976168;28;20685;-89
2022/10/05 05:24:18;;;;;;;13.30;10.07;;;13.20;86.00;;;;;;5014985;28;20180;-89
2022/10/05 05:27:02;;;;;;;11.93;8.93;;;13.20;86.20;;;;;;5017126;28;20162;-89
2022/10/05 05:30:00;;;;;;;14.83;10.10;;;13.20;86.30;;;;;;5016241;28;20193;-90
2022/10/05 05:32:39;;;;;;;19.40;10.57;;;13.20;86.40;;;;;;5015978;28;20166;-88
2022/10/05 05:35:26;;;;;;;17.80;9.80;;;13.30;86.20;;;;;;5016507;28;20176;-89
2022/10/05 05:38:16;;;;;;;14.27;10.40;;;13.30;86.30;;;;;;5016413;28;20158;-89
2022/10/05 05:41:01;;;;;;;15.77;10.17;;;13.30;86.20;;;;;;5014617;28;20589;-89
2022/10/05 05:43:47;;;;;;;15.27;11.57;;;13.30;86.40;;;;;;4995130;28;20205;-89
2022/10/05 05:46:21;;;;;;;19.20;11.20;;;13.30;86.70;;;;;;5014657;28;20173;-90
2022/10/05 05:48:48;;;;;;;15.83;11.93;;;13.20;86.90;;;;;;5014839;28;20212;-90
2022/10/05 05:51:34;;;;;;;20.37;11.47;;;13.20;86.80;;;;;;5014352;28;20205;-89
2022/10/05 05:54:14;;;;;;;16.40;10.63;;;13.30;86.70;;;;;;5014238;28;20173;-89
2022/10/05 05:56:47;;;;;;;15.87;11.30;;;13.20;86.80;;;;;;5017106;28;20599;-89
2022/10/05 05:59:21;;;;;;;18.73;12.33;;;13.20;86.90;;;;;;5014074;28;20197;-89
2022/10/05 06:01:51;;;;;;;19.43;11.70;;;13.20;86.90;;;;;;5015147;28;20178;-89
2022/10/05 06:04:35;;;;;;;22.40;13.50;;;13.20;87.20;;;;;;5019259;28;20646;-89
2022/10/05 06:07:03;;;;;;;18.03;12.00;;;13.20;87.30;;;;;;5019508;28;20177;-89
2022/10/05 06:09:54;;;;;;;17.73;12.10;;;13.20;87.40;;;;;;5019588;28;20230;-89
2022/10/05 06:12:28;;;;;;;21.73;12.40;;;13.20;87.50;;;;;;5018910;28;20177;-89
2022/10/05 06:14:58;;;;;;;17.33;11.20;;;13.20;87.40;;;;;;5018543;28;20177;-89
2022/10/05 06:17:30;;;;;;;20.37;12.00;;;13.20;87.30;;;;;;5017634;28;20526;-89
2022/10/05 06:19:59;;;;;;;18.93;11.57;;;13.30;87.30;;;;;;5017936;28;20307;-89
2022/10/05 06:22:35;;;;;;;16.77;11.30;;;13.30;87.30;;;;;;5018930;28;20177;-89
2022/10/05 06:25:07;;;;;;;18.13;12.57;;;13.30;87.00;;;;;;5019805;28;20530;-90
2022/10/05 06:27:35;;;;;;;20.63;12.27;;;13.40;87.10;;;;;;5020504;28;20548;-89
2022/10/05 06:30:12;;;;;;;21.20;12.33;;;13.30;87.20;;;;;;5020971;28;20712;-89
2022/10/05 06:32:47;;;;;;;22.50;12.00;;;13.30;87.20;;;;;;5019358;28;20170;-89
2022/10/05 06:35:32;;;;;;;22.10;13.50;;;13.40;87.00;;;;;;5019092;28;20628;-89
2022/10/05 06:38:16;;;;;;;19.80;12.00;;;13.30;87.00;;;;;;5018782;28;20245;-89
2022/10/05 06:41:06;;;;;;;20.23;13.10;;;13.50;86.80;;;;;;5017052;28;20240;-89
2022/10/05 06:43:45;;;;;;;17.90;13.43;;;13.50;87.10;;;;;;5017874;28;20594;-89
2022/10/05 06:46:43;;;;;;;20.27;12.33;;;13.50;87.10;;;;;;5018758;28;20539;-89
2022/10/05 06:49:17;;;;;;;21.57;13.57;;;13.50;87.20;;;;;;5013696;28;20631;-89
2022/10/05 06:51:57;;;;;;;21.10;11.43;;;13.50;87.10;;;;;;5018125;28;20687;-89
2022/10/05 06:55:05;;;;;;;15.50;11.73;;;13.50;87.10;;;;;;5018037;28;20176;-89
2022/10/05 06:58:18;;;;;;;16.47;10.73;;;13.50;87.10;;;;;;5021469;28;20243;-87
2022/10/05 07:00:52;;;;;;;17.77;11.57;;;13.60;87.10;;;;;;4960997;28;20689;-88
2022/10/05 07:03:41;;;;;;;19.37;12.50;;;13.60;87.30;;;;;;4960651;28;20193;-87
2022/10/05 07:06:09;;;;;;;19.03;12.87;;;13.60;87.10;;;;;;5007412;28;20216;-89
2022/10/05 07:09:02;;;;;;;17.90;11.53;;;13.70;86.80;;;;;;5017313;28;20231;-89
2022/10/05 07:11:57;;;;;;;17.77;10.90;;;13.80;87.00;;;;;;5017038;28;20193;-89
2022/10/05 07:14:57;;;;;;;16.63;11.50;;;13.80;86.30;;;;;;5016804;28;20173;-89
2022/10/05 07:17:43;;;;;;;19.83;13.17;;;13.80;86.80;;;;;;5016619;28;20154;-89
2022/10/05 07:20:20;;;;;;;13.70;11.20;;;13.80;86.60;;;;;;5017079;28;20219;-89
2022/10/05 07:23:16;;;;;;;20.60;11.87;;;13.90;86.30;;;;;;5017113;28;20169;-89
2022/10/05 07:26:08;;;;;;;15.70;12.10;;;13.90;86.20;;;;;;5016905;28;20170;-88
2022/10/05 07:28:45;;;;;;;16.40;12.10;;;14.00;86.50;;;;;;5018111;28;20173;-89
2022/10/05 07:31:27;;;;;;;15.70;12.17;;;13.90;86.40;;;;;;5019289;28;20197;-89
2022/10/05 07:34:12;;;;;;;16.90;11.40;;;13.90;86.10;;;;;;5018738;28;20171;-88
2022/10/05 07:40:36;;;;;;;17.47;12.57;;;13.90;86.30;;;;;;5018316;28;20255;-89
2022/10/05 07:43:20;;;;;;;15.27;11.00;;;13.90;86.00;;;;;;5004160;28;20225;-90
2022/10/05 07:46:16;;;;;;;16.53;11.47;;;14.00;85.70;;;;;;5018158;28;20189;-90
2022/10/05 07:49:02;;;;;;;17.63;11.70;;;14.00;86.20;;;;;;5017850;28;20228;-89
2022/10/05 07:51:45;;;;;;;13.57;10.80;;;14.00;86.20;;;;;;5018527;28;20185;-90
2022/10/05 07:54:25;;;;;;;17.00;11.50;;;14.10;86.20;;;;;;5016168;28;20177;-89
2022/10/05 07:57:06;;;;;;;18.60;12.87;;;14.10;86.00;;;;;;5019363;28;20172;-89
2022/10/05 07:59:49;;;;;;;16.30;11.07;;;14.10;85.80;;;;;;5022465;28;20204;-89
2022/10/05 08:02:27;;;;;;;20.67;12.93;;;14.20;85.70;;;;;;5020143;28;20256;-89
2022/10/05 08:05:26;;;;;;;17.43;11.80;;;14.20;85.80;;;;;;5019327;28;20192;-89
2022/10/05 08:08:16;;;;;;;15.13;13.10;;;14.20;85.90;;;;;;5013432;28;20201;-89
2022/10/05 08:11:05;;;;;;;17.70;11.80;;;14.20;85.90;;;;;;5025985;28;20245;-88
2022/10/05 08:13:41;;;;;;;19.40;12.90;;;14.20;85.60;;;;;;5022404;28;20248;-89
2022/10/05 08:16:13;;;;;;;15.93;12.33;;;14.30;85.60;;;;;;5020782;28;20169;-89
2022/10/05 08:19:09;;;;;;;16.30;11.60;;;14.30;85.80;;;;;;5021248;28;20208;-89
2022/10/05 08:21:39;;;;;;;15.57;11.77;;;14.30;85.80;;;;;;5019669;28;20229;-89
2022/10/05 08:24:35;;;;;;;21.23;11.77;;;14.30;85.60;;;;;;5021653;28;20273;-89
2022/10/05 08:27:23;;;;;;;18.87;11.50;;;14.30;85.50;;;;;;5020319;28;20169;-90
2022/10/05 08:30:05;;;;;;;16.30;11.50;;;14.30;85.50;;;;;;5008417;28;20228;-89
2022/10/05 08:32:52;;;;;;;16.17;12.10;;;14.30;85.50;;;;;;5020936;28;20224;-90
2022/10/05 08:35:27;;;;;;;17.20;12.23;;;14.40;85.80;;;;;;5017856;28;20170;-90
2022/10/05 08:37:53;;;;;;;20.20;13.83;;;14.50;85.70;;;;;;5019127;28;20169;-90
2022/10/05 08:40:37;;;;;;;19.33;11.47;;;14.60;85.10;;;;;;5017469;28;20347;-90
2022/10/05 08:43:22;;;;;;;18.73;12.13;;;14.70;84.70;;;;;;5017154;28;20573;-90
2022/10/05 08:46:16;;;;;;;21.03;12.70;;;14.80;85.20;;;;;;5018842;28;20177;-90
2022/10/05 08:49:03;;;;;;;16.53;12.90;;;14.80;84.70;;;;;;5024416;28;20201;-89
2022/10/05 08:52:01;;;;;;;14.70;11.87;;;14.80;84.40;;;;;;5028491;28;20244;-88
2022/10/05 08:54:55;;;;;;;17.77;12.40;;;14.80;84.40;;;;;;5021269;28;20535;-89
2022/10/05 08:57:20;;;;;;;20.70;11.97;;;14.80;84.30;;;;;;5018014;28;20158;-88
2022/10/05 08:59:48;;;;;;;16.00;11.73;;;14.90;84.20;;;;;;5013673;28;20251;-88
2022/10/05 09:02:26;;;;;;;19.42;11.90;;;15.00;84.50;;;;;;5012332;28;20176;-88
2022/10/05 09:05:14;;;;;;;17.30;12.17;;;15.00;83.90;;;;;;5012199;28;20173;-88
2022/10/05 09:08:07;;;;;;;16.77;10.83;;;15.00;84.00;;;;;;5012181;28;20173;-88
2022/10/05 09:10:36;;;;;;;13.80;10.03;;;15.10;84.40;;;;;;5013304;28;20201;-88
2022/10/05 09:13:13;;;;;;;13.83;10.73;;;15.10;83.40;;;;;;5012588;28;20180;-89
2022/10/05 09:16:07;;;;;;;17.83;9.80;;;15.10;83.10;;;;;;5012324;28;20165;-89
2022/10/05 09:18:54;;;;;;;20.27;11.13;;;15.10;83.20;;;;;;5013571;28;20174;-88
2022/10/05 09:21:40;;;;;;;16.27;9.83;;;15.20;83.20;;;;;;5013767;28;20170;-89
2022/10/05 09:24:12;;;;;;;13.68;10.45;;;15.20;82.80;;;;;;5012393;28;20177;-88
2022/10/05 09:26:59;;;;;;;13.67;10.50;;;15.20;82.60;;;;;;5013428;28;20208;-88
2022/10/05 09:29:49;;;;;;;12.93;10.33;;;15.20;82.60;;;;;;5013332;28;20189;-88
2022/10/05 09:32:50;;;;;;;14.82;9.73;;;15.30;82.90;;;;;;5012503;28;20772;-88
2022/10/05 09:35:37;;;;;;;17.40;10.73;;;15.40;82.80;;;;;;5012827;28;20250;-88
2022/10/05 09:38:28;;;;;;;11.95;9.55;;;15.40;82.40;;;;;;5012262;28;20190;-88
2022/10/05 09:41:25;;;;;;;15.60;10.60;;;15.50;82.70;;;;;;5015413;28;20220;-88
2022/10/05 09:44:14;;;;;;;16.60;10.38;;;15.50;81.70;;;;;;5016284;28;20174;-89
2022/10/05 09:46:50;;;;;;;14.15;10.45;;;15.40;81.20;;;;;;5016138;28;20169;-89
2022/10/05 09:49:35;;;;;;;14.68;10.30;;;15.40;81.40;;;;;;5016398;28;20701;-89
2022/10/05 09:52:05;;;;;;;17.80;11.27;;;15.40;81.20;;;;;;5016632;28;20660;-88
2022/10/05 09:55:00;;;;;;;12.02;10.20;;;15.40;80.80;;;;;;5018022;28;20158;-89
2022/10/05 09:57:46;;;;;;;16.85;10.80;;;15.50;81.60;;;;;;5015870;28;20184;-87
2022/10/05 10:00:26;;;;;;;13.32;9.88;;;15.40;81.60;;;;;;5016927;28;20264;-89
2022/10/05 10:03:13;;;;;;;12.88;10.55;;;15.40;80.70;;;;;;5015653;28;20644;-89
2022/10/05 10:06:00;;;;;;;13.02;10.80;;;15.50;81.10;;;;;;5016946;28;20248;-89
2022/10/05 10:08:42;;;;;;;10.88;9.75;;;15.40;81.20;;;;;;5016833;28;20166;-90
2022/10/05 10:11:29;;;;;;;11.40;9.75;;;15.40;81.40;;;;;;5017240;28;20185;-91
2022/10/05 10:14:17;;;;;;;11.07;8.30;;;15.30;81.50;;;;;;5016746;28;20211;-88
2022/10/05 10:17:08;;;;;;;13.68;9.70;;;15.30;80.90;;;;;;5015424;28;20161;-89
2022/10/05 10:19:52;;;;;;;13.82;9.50;;;15.30;80.70;;;;;;5015078;28;20690;-89
2022/10/05 10:22:48;;;;;;;12.95;9.57;;;15.30;81.50;;;;;;5016649;28;20527;-88
2022/10/05 10:25:18;;;;;;;9.85;8.68;;;15.30;81.20;;;;;;5015540;28;20196;-89
2022/10/05 10:28:01;;;;;;;13.32;8.65;;;15.30;81.50;;;;;;5015744;28;20357;-88
2022/10/05 10:31:08;;;;;;;13.93;9.18;;;15.30;81.20;;;;;;5015057;28;20197;-88
2022/10/05 10:34:16;;;;;;;12.43;8.50;;;15.30;81.70;;;;;;5014840;28;20256;-88
2022/10/05 10:37:12;;;;;;;11.95;8.15;;;15.30;81.20;;;;;;5014835;28;20165;-88
2022/10/05 10:39:56;;;;;;;9.13;7.70;;;15.30;81.50;;;;;;5014651;28;20551;-88
2022/10/05 10:42:39;;;;;;;11.32;8.45;;;15.30;81.50;;;;;;5016129;28;20340;-88
2022/10/05 10:45:13;;;;;;;8.52;7.25;;;15.30;81.60;;;;;;5015465;28;20220;-88
2022/10/05 10:47:55;;;;;;;10.18;6.97;;;15.40;81.70;;;;;;5014689;28;20628;-88
2022/10/05 10:50:39;;;;;;;9.15;7.07;;;15.40;80.50;;;;;;5014317;28;20205;-88
2022/10/05 10:53:39;;;;;;;7.57;6.65;;;15.40;79.70;;;;;;5015342;28;20177;-87
2022/10/05 10:56:31;;;;;;;10.52;6.97;;;15.40;79.90;;;;;;5015669;28;20224;-88
2022/10/05 10:59:40;;;;;;;8.07;7.27;;;15.40;78.70;;;;;;5015567;28;20189;-88
2022/10/05 11:02:18;;;;;;;9.55;7.57;;;15.40;79.80;;;;;;5014391;28;20629;-88
2022/10/05 11:05:21;;;;;;;8.25;7.38;;;15.40;80.70;;;;;;5015440;28;20200;-88
2022/10/05 11:07:47;;;;;;;11.48;8.15;;;15.40;78.90;;;;;;5015517;28;20534;-88
2022/10/05 11:10:38;;;;;;;8.93;7.40;;;15.50;79.20;;;;;;5014106;28;20205;-88
2022/10/05 11:13:41;;;;;;;9.43;8.52;;;15.40;79.60;;;;;;5014194;28;20260;-88
2022/10/05 11:16:44;;;;;;;9.75;8.82;;;15.40;80.10;;;;;;4985030;28;20184;-88
2022/10/05 11:19:47;;;;;;;8.73;7.80;;;15.40;79.80;;;;;;5009068;28;20655;-88
2022/10/05 11:22:36;;;;;;;9.95;8.10;;;15.30;79.30;;;;;;5013968;28;20216;-88
2022/10/05 11:25:17;;;;;;;8.68;7.13;;;15.40;79.60;;;;;;5013943;28;20180;-88
2022/10/05 11:27:59;;;;;;;8.87;7.23;;;15.40;79.50;;;;;;5013882;28;20177;-88
2022/10/05 11:30:44;;;;;;;11.85;8.15;;;15.40;79.40;;;;;;5014771;28;20201;-88
2022/10/05 11:33:37;;;;;;;8.10;6.90;;;15.40;79.70;;;;;;5015354;28;20165;-88
2022/10/05 11:36:30;;;;;;;12.23;7.68;;;15.40;80.30;;;;;;5014129;28;20174;-88
2022/10/05 11:39:15;;;;;;;8.40;6.95;;;15.50;80.10;;;;;;5013534;28;20229;-88
2022/10/05 11:42:08;;;;;;;9.38;6.68;;;15.50;79.50;;;;;;5014782;28;20199;-88
2022/10/05 11:44:37;;;;;;;10.68;7.30;;;15.50;79.60;;;;;;5015053;28;20168;-88
2022/10/05 11:47:16;;;;;;;6.20;5.70;;;15.60;80.10;;;;;;5013452;28;20177;-88
2022/10/05 11:50:05;;;;;;;6.32;5.72;;;15.60;80.10;;;;;;5013273;28;20622;-88
2022/10/05 11:53:02;;;;;;;6.18;5.57;;;15.60;80.40;;;;;;5013346;28;20176;-88
2022/10/05 11:56:18;;;;;;;6.82;6.07;;;15.70;80.10;;;;;;5014609;28;20157;-88
2022/10/05 11:58:58;;;;;;;6.13;5.53;;;15.60;79.10;;;;;;5013312;28;20197;-88
2022/10/05 12:01:35;;;;;;;5.78;5.28;;;15.70;79.90;;;;;;5013259;28;20170;-88
2022/10/05 12:04:27;;;;;;;6.00;5.40;;;15.70;79.50;;;;;;5014092;28;20165;-88
2022/10/05 12:07:07;;;;;;;3.83;3.53;;;15.70;78.60;;;;;;5013120;28;20161;-88
2022/10/05 12:10:12;;;;;;;5.47;4.63;;;15.70;78.20;;;;;;5014266;28;20224;-88
2022/10/05 12:12:39;;;;;;;7.38;4.93;;;15.70;79.20;;;;;;5014119;28;20188;-88
2022/10/05 12:15:27;;;;;;;6.88;4.30;;;15.70;79.20;;;;;;5013065;28;20172;-88
2022/10/05 12:18:07;;;;;;;8.25;4.80;;;15.70;78.90;;;;;;5014169;28;20162;-88
2022/10/05 12:20:38;;;;;;;9.43;4.93;;;15.70;79.20;;;;;;5012994;28;20641;-88
2022/10/05 12:23:06;;;;;;;5.82;4.90;;;15.80;79.00;;;;;;5014102;28;20160;-88
2022/10/05 12:25:36;;;;;;;6.03;5.43;;;15.80;79.60;;;;;;5014010;28;20173;-88
2022/10/05 12:28:09;;;;;;;8.90;5.18;;;15.80;78.40;;;;;;5014040;28;20509;-88
2022/10/05 12:31:02;;;;;;;5.15;4.28;;;15.90;78.70;;;;;;5012502;28;20208;-88
2022/10/05 12:33:41;;;;;;;5.15;4.60;;;15.90;78.20;;;;;;5012774;28;20252;-88
2022/10/05 12:36:18;;;;;;;5.32;4.25;;;15.90;78.20;;;;;;5012752;28;20227;-88
2022/10/05 12:38:55;;;;;;;6.22;3.97;;;16.00;78.50;;;;;;5013794;28;20189;-88
2022/10/05 12:41:54;;;;;;;6.68;4.30;;;16.00;79.30;;;;;;5014073;28;20169;-88
2022/10/05 12:44:54;;;;;;;6.38;4.72;;;16.00;78.60;;;;;;5014070;28;20169;-88
2022/10/05 12:47:41;;;;;;;8.52;4.45;;;16.10;78.60;;;;;;4970152;28;20338;-88
2022/10/05 12:50:15;;;;;;;8.15;4.22;;;16.10;78.80;;;;;;5013602;28;20204;-88
2022/10/05 12:53:19;;;;;;;5.07;4.03;;;16.10;78.50;;;;;;5013993;28;20225;-88
2022/10/05 12:56:00;;;;;;;6.25;4.10;;;16.20;78.90;;;;;;4934342;29;20182;-88
2022/10/05 12:58:57;;;;;;;5.53;4.25;;;16.20;78.70;;;;;;4934105;29;20699;-88
2022/10/05 13:01:39;;;;;;;6.68;4.57;;;16.20;78.70;;;;;;4991413;28;20189;-88
2022/10/05 13:04:28;;;;;;;6.90;4.50;;;16.20;78.80;;;;;;5012060;28;20185;-88
2022/10/05 13:07:15;;;;;;;5.63;3.63;;;16.30;78.80;;;;;;5013532;28;20568;-88
2022/10/05 13:09:45;;;;;;;4.63;3.97;;;16.30;79.00;;;;;;5012272;28;20208;-88
2022/10/05 13:12:22;;;;;;;5.13;4.28;;;16.30;79.20;;;;;;5013081;28;20177;-88
2022/10/05 13:15:24;;;;;;;5.80;4.03;;;16.30;78.80;;;;;;5014974;28;20150;-88
2022/10/05 13:18:07;;;;;;;6.50;3.85;;;16.30;79.70;;;;;;5017724;28;20158;-88
2022/10/05 13:21:02;;;;;;;5.53;3.47;;;16.30;79.80;;;;;;5016142;28;20212;-88
2022/10/05 13:23:42;;;;;;;5.95;3.88;;;16.30;78.90;;;;;;5016456;28;20166;-88
2022/10/05 13:26:16;;;;;;;6.53;4.43;;;16.40;79.20;;;;;;5017595;28;20157;-88
2022/10/05 13:29:15;;;;;;;5.88;4.00;;;16.50;78.10;;;;;;5017423;28;20566;-88
2022/10/05 13:31:48;;;;;;;3.85;3.55;;;16.50;78.20;;;;;;5017415;28;20189;-88
2022/10/05 13:34:45;;;;;;;5.68;4.20;;;16.50;79.10;;;;;;5016260;28;20278;-88
2022/10/05 13:37:32;;;;;;;6.05;3.88;;;16.50;78.80;;;;;;5017355;28;20229;-88
2022/10/05 13:40:31;;;;;;;4.43;4.03;;;16.60;78.60;;;;;;5016153;28;20201;-88
2022/10/05 13:43:21;;;;;;;4.85;4.03;;;16.60;78.50;;;;;;5016147;28;20257;-88
2022/10/05 13:46:00;;;;;;;6.00;3.90;;;16.70;78.80;;;;;;5017204;28;20176;-88
2022/10/05 13:49:10;;;;;;;5.97;3.92;;;16.70;78.90;;;;;;5015673;28;20166;-88
2022/10/05 13:51:57;;;;;;;6.53;4.32;;;16.70;78.90;;;;;;4999625;28;20691;-88
2022/10/05 13:54:34;;;;;;;9.60;3.88;;;16.70;78.80;;;;;;5016163;28;20228;-88
2022/10/05 13:57:25;;;;;;;5.20;3.60;;;16.70;78.40;;;;;;5015650;28;20263;-88
2022/10/05 13:59:57;;;;;;;7.80;3.90;;;16.70;78.90;;;;;;5016692;28;20200;-88
2022/10/05 14:02:36;;;;;;;4.95;4.03;;;16.70;78.90;;;;;;5015917;28;20180;-88